Time;durP1;ratioP1;P1;durP2;ratioP2;P2;SDS_P1;SDS_P2;PMS_P1;PMS_P2;Temp;Humidity;BMP_temperature;BMP_pressure;BME280_temperature;BME280_humidity;BME280_pressure;Samples;Min_cycle;Max_cycle;Signal;HPM_P1;HPM_P2
2023/03/12 00:00:28;;;;;;;4.83;2.40;;;;;;;;;;10390430;28;20054;-78
2023/03/12 00:05:33;;;;;;;3.07;1.77;;;;;;;;;;10400454;28;20072;-78
2023/03/12 00:10:58;;;;;;;2.47;0.57;;;;;;;;;;10400915;28;20117;-79
2023/03/12 00:16:09;;;;;;;2.27;0.87;;;;;;;;;;10441876;28;20048;-79
2023/03/12 00:21:20;;;;;;;2.83;1.43;;;;;;;;;;10441808;28;20049;-79
2023/03/12 00:26:54;;;;;;;5.53;2.10;;;;;;;;;;10445387;28;20594;-80
2023/03/12 00:31:59;;;;;;;;;;;;;;;;;;10440105;28;20056;-77
2023/03/12 00:37:08;;;;;;;5.20;1.93;;;;;;;;;;10444634;28;20370;-77
2023/03/12 00:42:36;;;;;;;2.60;1.67;;;;;;;;;;10447672;28;20048;-78
2023/03/12 00:47:49;;;;;;;2.85;1.80;;;;;;;;;;10449761;28;20045;-78
2023/03/12 00:58:31;;;;;;;1.13;0.60;;;;;;;;;;10444976;28;20115;-78
2023/03/12 01:03:46;;;;;;;1.80;0.70;;;;;;;;;;10441176;28;20064;-78
2023/03/12 01:08:49;;;;;;;;;;;;;;;;;;10439829;28;20203;-79
2023/03/12 01:13:58;;;;;;;7.67;1.80;;;;;;;;;;10455423;28;20375;-79
2023/03/12 01:19:08;;;;;;;2.67;1.37;;;;;;;;;;10440763;28;20045;-79
2023/03/12 01:24:23;;;;;;;3.80;1.77;;;;;;;;;;10442259;28;20063;-78
2023/03/12 01:29:33;;;;;;;4.73;1.70;;;;;;;;;;10424174;28;20041;-78
2023/03/12 01:34:40;;;;;;;8.07;1.60;;;;;;;;;;10443027;28;20059;-79
2023/03/12 01:39:45;;;;;;;1.10;0.60;;;;;;;;;;10436523;28;20060;-78
2023/03/12 01:44:57;;;;;;;3.60;1.80;;;;;;;;;;10440626;28;20047;-78
2023/03/12 01:50:07;;;;;;;6.13;1.80;;;;;;;;;;10443439;28;20037;-78
2023/03/12 01:55:15;;;;;;;4.17;1.60;;;;;;;;;;10442832;28;20116;-77
2023/03/12 02:00:46;;;;;;;5.97;2.40;;;;;;;;;;10440021;28;20037;-78
2023/03/12 02:06:13;;;;;;;6.60;2.10;;;;;;;;;;10441360;28;20140;-80
2023/03/12 02:11:25;;;;;;;2.07;1.20;;;;;;;;;;10419925;28;20049;-78
2023/03/12 02:16:34;;;;;;;4.17;1.90;;;;;;;;;;10439323;28;20476;-78
2023/03/12 02:21:47;;;;;;;0.43;0.40;;;;;;;;;;10433937;28;20037;-77
2023/03/12 02:27:04;;;;;;;1.67;1.03;;;;;;;;;;10438612;28;20041;-78
2023/03/12 02:32:23;;;;;;;5.27;1.33;;;;;;;;;;10442987;28;20530;-79
2023/03/12 02:37:34;;;;;;;0.73;0.50;;;;;;;;;;10435865;28;20280;-78
2023/03/12 02:42:45;;;;;;;4.87;2.10;;;;;;;;;;10444030;28;20059;-78
2023/03/12 02:47:48;;;;;;;6.80;2.60;;;;;;;;;;10443287;28;20370;-80
2023/03/12 02:52:52;;;;;;;2.63;1.20;;;;;;;;;;10438671;28;20048;-79
2023/03/12 02:58:00;;;;;;;3.67;1.35;;;;;;;;;;10449471;28;20052;-79
2023/03/12 03:03:06;;;;;;;1.43;0.90;;;;;;;;;;10444380;28;20051;-79
2023/03/12 03:08:23;;;;;;;5.60;2.67;;;;;;;;;;10447137;28;20035;-78
2023/03/12 03:13:32;;;;;;;2.87;1.53;;;;;;;;;;10449214;28;20101;-78
2023/03/12 03:18:48;;;;;;;5.10;2.50;;;;;;;;;;10451289;28;20097;-79
2023/03/12 03:23:52;;;;;;;4.27;2.33;;;;;;;;;;10448039;28;20052;-78
2023/03/12 03:34:36;;;;;;;5.73;1.97;;;;;;;;;;10445946;28;20120;-80
2023/03/12 03:39:48;;;;;;;5.00;2.37;;;;;;;;;;10437057;28;20137;-79
2023/03/12 03:45:11;;;;;;;8.33;1.90;;;;;;;;;;10451098;28;20052;-78
2023/03/12 03:50:19;;;;;;;6.13;1.97;;;;;;;;;;10443034;28;20624;-79
2023/03/12 03:55:25;;;;;;;9.20;3.10;;;;;;;;;;10451835;28;20493;-78
2023/03/12 04:06:14;;;;;;;8.02;3.55;;;;;;;;;;10424393;28;20059;-79
2023/03/12 04:11:24;;;;;;;8.30;2.60;;;;;;;;;;10444077;28;20132;-78
2023/03/12 04:16:47;;;;;;;10.03;4.10;;;;;;;;;;10431861;28;20528;-80
2023/03/12 04:21:57;;;;;;;2.00;1.37;;;;;;;;;;10423973;28;20036;-78
2023/03/12 04:27:14;;;;;;;6.30;2.63;;;;;;;;;;10424256;28;20422;-78
2023/03/12 04:32:29;;;;;;;8.23;3.67;;;;;;;;;;10445828;28;20359;-77
2023/03/12 04:37:37;;;;;;;11.05;3.72;;;;;;;;;;10415820;28;20041;-78
2023/03/12 04:43:04;;;;;;;10.23;4.20;;;;;;;;;;10441753;28;20048;-78
2023/03/12 04:48:40;;;;;;;13.60;3.77;;;;;;;;;;10482264;28;20071;-79
2023/03/12 04:53:49;;;;;;;6.63;2.60;;;;;;;;;;10491658;28;20060;-80
2023/03/12 04:58:58;;;;;;;1.40;1.03;;;;;;;;;;10486892;28;20195;-78
2023/03/12 05:04:12;;;;;;;8.10;3.47;;;;;;;;;;10484403;28;20046;-79
2023/03/12 05:09:25;;;;;;;9.43;3.92;;;;;;;;;;10484021;28;20056;-78
2023/03/12 05:14:52;;;;;;;8.50;3.60;;;;;;;;;;10484621;28;20060;-80
2023/03/12 05:20:21;;;;;;;9.07;3.88;;;;;;;;;;10490522;28;20474;-80
2023/03/12 05:25:43;;;;;;;2.33;1.53;;;;;;;;;;10483465;28;20126;-79
2023/03/12 05:30:50;;;;;;;8.90;3.73;;;;;;;;;;10469370;28;20144;-80
2023/03/12 05:35:59;;;;;;;9.37;3.83;;;;;;;;;;10483060;28;20086;-80
2023/03/12 05:41:10;;;;;;;2.33;1.63;;;;;;;;;;10485894;28;20044;-79
2023/03/12 05:46:15;;;;;;;7.53;3.17;;;;;;;;;;10483933;28;20469;-80
2023/03/12 05:51:34;;;;;;;9.70;3.97;;;;;;;;;;10489806;28;20063;-79
2023/03/12 05:56:43;;;;;;;8.97;3.77;;;;;;;;;;10488712;28;20041;-80
2023/03/12 06:01:49;;;;;;;9.23;3.93;;;;;;;;;;10482125;28;20056;-79
2023/03/12 06:07:12;;;;;;;10.40;4.23;;;;;;;;;;10488612;28;20055;-79
2023/03/12 06:12:27;;;;;;;8.50;3.07;;;;;;;;;;10485399;28;20094;-79
2023/03/12 06:17:31;;;;;;;6.73;3.37;;;;;;;;;;10485509;28;20033;-79
2023/03/12 06:22:43;;;;;;;2.80;1.67;;;;;;;;;;10478787;28;20520;-79
2023/03/12 06:28:06;;;;;;;6.43;2.93;;;;;;;;;;10450069;28;20044;-79
2023/03/12 06:33:15;;;;;;;4.83;2.67;;;;;;;;;;10486478;28;20511;-78
2023/03/12 06:38:18;;;;;;;7.53;4.43;;;;;;;;;;10485065;28;20032;-78
2023/03/12 06:43:29;;;;;;;5.88;2.67;;;;;;;;;;10483905;28;20822;-80
2023/03/12 06:48:35;;;;;;;5.77;2.90;;;;;;;;;;10482813;28;20374;-79
2023/03/12 06:59:29;;;;;;;3.40;1.83;;;;;;;;;;10490974;28;20532;-78
2023/03/12 07:04:42;;;;;;;5.18;2.33;;;;;;;;;;10477716;28;20044;-79
2023/03/12 07:09:56;;;;;;;3.22;1.85;;;;;;;;;;10482140;28;20550;-78
2023/03/12 07:15:19;;;;;;;4.57;1.63;;;;;;;;;;10483363;28;20044;-78
2023/03/12 07:20:27;;;;;;;4.03;1.77;;;;;;;;;;10469774;28;20466;-77
2023/03/12 07:25:54;;;;;;;3.13;1.10;;;;;;;;;;10482986;28;20070;-80
2023/03/12 07:36:37;;;;;;;4.97;1.50;;;;;;;;;;10469695;28;20120;-79
2023/03/12 07:42:05;;;;;;;;;;;;;;;;;;10475788;28;20539;-78
2023/03/12 07:47:20;;;;;;;1.60;0.75;;;;;;;;;;10478573;28;20231;-79
2023/03/12 07:52:39;;;;;;;2.78;1.10;;;;;;;;;;10465490;28;20322;-78
2023/03/12 07:57:48;;;;;;;3.80;1.55;;;;;;;;;;10467964;28;20037;-79
2023/03/12 08:03:08;;;;;;;4.38;1.42;;;;;;;;;;10478482;28;20052;-79
2023/03/12 08:08:45;;;;;;;3.83;1.40;;;;;;;;;;10493302;28;20033;-77
2023/03/12 08:13:55;;;;;;;15.30;0.98;;;;;;;;;;10477484;28;20375;-77
2023/03/12 08:18:59;;;;;;;0.73;0.68;;;;;;;;;;10486362;28;20563;-79
2023/03/12 08:24:20;;;;;;;2.20;0.95;;;;;;;;;;10492200;28;20569;-80
2023/03/12 08:35:07;;;;;;;4.30;1.60;;;;;;;;;;10501674;28;20041;-81
2023/03/12 08:40:36;;;;;;;1.38;0.65;;;;;;;;;;10508436;28;20067;-81
2023/03/12 08:45:55;;;;;;;3.92;1.20;;;;;;;;;;10499885;28;20091;-84
2023/03/12 08:51:15;;;;;;;2.78;1.60;;;;;;;;;;10487479;28;20147;-81
2023/03/12 08:56:22;;;;;;;1.20;0.70;;;;;;;;;;10488749;28;20079;-81
2023/03/12 09:01:32;;;;;;;3.33;1.40;;;;;;;;;;10478583;28;20045;-79
2023/03/12 09:12:22;;;;;;;6.13;2.05;;;;;;;;;;10464581;28;20059;-79
2023/03/12 09:17:31;;;;;;;2.13;1.38;;;;;;;;;;10466706;28;20302;-79
2023/03/12 09:22:39;;;;;;;4.03;2.30;;;;;;;;;;10480458;28;20423;-80
2023/03/12 09:28:04;;;;;;;2.80;1.83;;;;;;;;;;10477109;28;20115;-78
2023/03/12 09:33:23;;;;;;;2.88;1.25;;;;;;;;;;10497516;28;20078;-78
2023/03/12 09:38:36;;;;;;;1.73;0.90;;;;;;;;;;10465038;28;20053;-78
2023/03/12 09:43:55;;;;;;;1.95;0.98;;;;;;;;;;10456661;28;20076;-80
2023/03/12 09:49:07;;;;;;;1.67;1.25;;;;;;;;;;10499479;28;20036;-78
2023/03/12 09:54:20;;;;;;;4.85;1.85;;;;;;;;;;10481031;28;20068;-76
2023/03/12 09:59:30;;;;;;;3.28;1.63;;;;;;;;;;10484291;28;20044;-81
2023/03/12 10:04:46;;;;;;;1.63;1.20;;;;;;;;;;10465433;28;20079;-79
2023/03/12 10:15:48;;;;;;;1.90;1.35;;;;;;;;;;10481501;28;20045;-78
2023/03/12 10:21:16;;;;;;;3.03;1.90;;;;;;;;;;10481901;28;20132;-78
2023/03/12 10:26:42;;;;;;;2.70;1.48;;;;;;;;;;10480149;28;20075;-77
2023/03/12 10:32:02;;;;;;;1.13;0.82;;;;;;;;;;10493707;28;20513;-78
2023/03/12 10:42:38;;;;;;;1.25;0.75;;;;;;;;;;10475833;28;20464;-79
2023/03/12 10:53:22;;;;;;;2.03;1.20;;;;;;;;;;10462401;28;20069;-79
2023/03/12 10:58:41;;;;;;;1.67;1.10;;;;;;;;;;10443559;28;20043;-79
2023/03/12 11:04:10;;;;;;;;;;;;;;;;;;10481114;28;20055;-76
2023/03/12 11:09:18;;;;;;;1.30;0.75;;;;;;;;;;10481666;28;19920;-78
2023/03/12 11:14:39;;;;;;;2.28;1.35;;;;;;;;;;10478539;28;20047;-82
2023/03/12 11:19:50;;;;;;;2.10;1.08;;;;;;;;;;10478837;28;20040;-81
2023/03/12 11:25:24;;;;;;;1.52;1.02;;;;;;;;;;10485029;28;20462;-78
2023/03/12 11:30:51;;;;;;;2.05;1.10;;;;;;;;;;10456600;28;20036;-80
2023/03/12 11:36:37;;;;;;;1.35;0.80;;;;;;;;;;10483823;28;20494;-79
2023/03/12 11:47:19;;;;;;;72.82;18.10;;;;;;;;;;10499393;28;20120;-80
2023/03/12 11:52:37;;;;;;;9.07;2.95;;;;;;;;;;10459663;28;20145;-81
2023/03/12 11:57:48;;;;;;;2.63;1.17;;;;;;;;;;10479374;28;20514;-80
2023/03/12 12:08:54;;;;;;;7.85;2.72;;;;;;;;;;10478177;28;20048;-80
2023/03/12 12:14:10;;;;;;;5.47;2.40;;;;;;;;;;10487531;28;20350;-80
2023/03/12 12:19:31;;;;;;;14.30;4.18;;;;;;;;;;10488213;28;20040;-80
2023/03/12 12:24:54;;;;;;;12.13;3.92;;;;;;;;;;10473310;28;20064;-79
2023/03/12 12:30:29;;;;;;;7.45;2.95;;;;;;;;;;10489176;28;20049;-80
2023/03/12 12:35:58;;;;;;;3.55;1.85;;;;;;;;;;10507492;28;20044;-82
2023/03/12 12:41:11;;;;;;;4.18;2.10;;;;;;;;;;10462869;28;20218;-79
2023/03/12 12:46:41;;;;;;;5.15;2.50;;;;;;;;;;10486479;28;20052;-81
2023/03/12 12:51:53;;;;;;;4.90;2.30;;;;;;;;;;10476038;28;20053;-81
2023/03/12 12:57:19;;;;;;;3.08;1.80;;;;;;;;;;10488984;28;20040;-80
2023/03/12 13:02:29;;;;;;;2.75;1.77;;;;;;;;;;10484303;28;20521;-79
2023/03/12 13:07:54;;;;;;;3.25;1.98;;;;;;;;;;10491751;28;20036;-82
2023/03/12 13:13:24;;;;;;;5.40;2.35;;;;;;;;;;10494598;28;20147;-81
2023/03/12 13:18:33;;;;;;;2.58;1.48;;;;;;;;;;10492415;28;20219;-81
2023/03/12 13:23:44;;;;;;;5.80;2.40;;;;;;;;;;10507011;28;20127;-79
2023/03/12 13:29:15;;;;;;;4.97;2.00;;;;;;;;;;10496034;28;20146;-79
2023/03/12 13:34:53;;;;;;;2.75;1.67;;;;;;;;;;10499403;28;20048;-79
2023/03/12 13:40:09;;;;;;;6.85;1.75;;;;;;;;;;10509585;28;20032;-80
2023/03/12 13:45:57;;;;;;;4.18;1.65;;;;;;;;;;10501293;28;20040;-80
2023/03/12 13:51:12;;;;;;;3.00;1.55;;;;;;;;;;10493041;28;20136;-80
2023/03/12 13:56:48;;;;;;;7.00;2.83;;;;;;;;;;10485724;28;20048;-80
2023/03/12 14:02:06;;;;;;;4.53;1.60;;;;;;;;;;10487738;28;20033;-80
2023/03/12 14:07:36;;;;;;;6.03;2.70;;;;;;;;;;10473243;28;20045;-79
2023/03/12 14:13:12;;;;;;;5.82;2.58;;;;;;;;;;10445441;28;20083;-81
2023/03/12 14:18:22;;;;;;;4.60;1.98;;;;;;;;;;10484110;28;20090;-80
2023/03/12 14:23:29;;;;;;;4.13;1.75;;;;;;;;;;10467555;28;20040;-80
2023/03/12 14:28:54;;;;;;;3.20;1.50;;;;;;;;;;10490518;28;20047;-80
2023/03/12 14:34:08;;;;;;;4.20;2.00;;;;;;;;;;10490746;28;20119;-81
2023/03/12 14:44:38;;;;;;;4.40;1.40;;;;;;;;;;10486097;28;20076;-80
2023/03/12 14:49:47;;;;;;;3.55;1.90;;;;;;;;;;10484169;28;20434;-80
2023/03/12 14:55:35;;;;;;;1.42;0.88;;;;;;;;;;10477957;28;20060;-81
2023/03/12 15:00:43;;;;;;;2.17;1.00;;;;;;;;;;10479652;28;20071;-81
2023/03/12 15:06:03;;;;;;;3.33;1.15;;;;;;;;;;10471124;28;20042;-80
2023/03/12 15:11:12;;;;;;;2.72;1.33;;;;;;;;;;10469262;28;20052;-79
2023/03/12 15:16:39;;;;;;;4.18;1.85;;;;;;;;;;10453459;28;20432;-79
2023/03/12 15:22:11;;;;;;;6.30;2.50;;;;;;;;;;10460373;28;20208;-79
2023/03/12 15:27:39;;;;;;;8.15;2.42;;;;;;;;;;10464598;28;20505;-83
2023/03/12 15:33:19;;;;;;;4.13;1.95;;;;;;;;;;10466299;28;20048;-81
2023/03/12 15:38:34;;;;;;;4.75;1.92;;;;;;;;;;10482092;28;20040;-80
2023/03/12 15:43:44;;;;;;;5.13;1.83;;;;;;;;;;10485434;28;20612;-81
2023/03/12 15:49:21;;;;;;;2.27;1.37;;;;;;;;;;10471923;28;20539;-81
2023/03/12 15:54:39;;;;;;;1.85;0.98;;;;;;;;;;10483821;28;20299;-81
2023/03/12 16:00:22;;;;;;;1.50;0.75;;;;;;;;;;10486228;28;20447;-81
2023/03/12 16:11:20;;;;;;;0.68;0.68;;;;;;;;;;10484759;28;20037;-81
2023/03/12 16:16:27;;;;;;;0.57;0.57;;;;;;;;;;10478820;28;20040;-80
2023/03/12 16:21:31;;;;;;;0.75;0.43;;;;;;;;;;10455794;28;20047;-82
2023/03/12 16:26:54;;;;;;;1.17;0.60;;;;;;;;;;10474742;28;20129;-82
2023/03/12 16:32:13;;;;;;;2.17;0.80;;;;;;;;;;10467085;28;20068;-81
2023/03/12 16:37:25;;;;;;;0.98;0.50;;;;;;;;;;10479167;28;20059;-81
2023/03/12 16:42:38;;;;;;;2.25;1.13;;;;;;;;;;10473596;28;20132;-80
2023/03/12 16:48:02;;;;;;;2.53;0.68;;;;;;;;;;10469933;28;20055;-80
2023/03/12 16:58:39;;;;;;;0.32;0.20;;;;;;;;;;10501530;28;20413;-81
2023/03/12 17:03:47;;;;;;;0.85;0.45;;;;;;;;;;10489364;28;20070;-81
2023/03/12 17:14:32;;;;;;;2.75;1.33;;;;;;;;;;10482356;28;20063;-83
2023/03/12 17:20:12;;;;;;;1.58;0.85;;;;;;;;;;10486065;28;20059;-81
2023/03/12 17:25:30;;;;;;;4.45;1.13;;;;;;;;;;10487923;28;20476;-81
2023/03/12 17:30:50;;;;;;;3.17;1.45;;;;;;;;;;10487467;28;20045;-80
2023/03/12 17:35:59;;;;;;;1.10;0.75;;;;;;;;;;10486435;28;20074;-81
2023/03/12 17:41:14;;;;;;;9.38;2.92;;;;;;;;;;10483669;28;20622;-80
2023/03/12 17:46:33;;;;;;;16.92;5.18;;;;;;;;;;10490132;28;20040;-80
2023/03/12 17:52:01;;;;;;;3.30;1.58;;;;;;;;;;10481645;28;20036;-82
2023/03/12 17:57:18;;;;;;;7.50;1.38;;;;;;;;;;10484192;28;20080;-82
2023/03/12 18:02:33;;;;;;;8.45;3.72;;;;;;;;;;10480238;28;20040;-80
2023/03/12 18:08:04;;;;;;;2.97;1.40;;;;;;;;;;10483125;28;20060;-83
2023/03/12 18:13:24;;;;;;;6.10;2.67;;;;;;;;;;10486704;28;20062;-81
2023/03/12 18:18:34;;;;;;;4.43;0.80;;;;;;;;;;10479620;28;20045;-80
2023/03/12 18:24:06;;;;;;;2.67;0.95;;;;;;;;;;10486269;28;20299;-81
2023/03/12 18:29:22;;;;;;;4.40;1.30;;;;;;;;;;10496518;28;20048;-81
2023/03/12 18:34:27;;;;;;;1.33;0.50;;;;;;;;;;10512889;28;20326;-81
2023/03/12 18:39:52;;;;;;;1.30;0.77;;;;;;;;;;10519495;28;20063;-83
2023/03/12 18:51:02;;;;;;;4.38;1.55;;;;;;;;;;10498639;28;20130;-84
2023/03/12 18:56:09;;;;;;;1.23;0.85;;;;;;;;;;10496574;28;20068;-84
2023/03/12 19:01:28;;;;;;;3.10;1.52;;;;;;;;;;10463926;28;20525;-83
2023/03/12 19:06:43;;;;;;;7.13;1.25;;;;;;;;;;10467220;28;20052;-84
2023/03/12 19:11:58;;;;;;;3.30;1.33;;;;;;;;;;10480281;28;20136;-83
2023/03/12 19:17:07;;;;;;;0.93;0.60;;;;;;;;;;10483791;28;20378;-84
2023/03/12 19:27:49;;;;;;;1.55;0.90;;;;;;;;;;10482502;28;20401;-84
2023/03/12 19:33:11;;;;;;;5.90;1.48;;;;;;;;;;10493269;28;20045;-84
2023/03/12 19:43:46;;;;;;;3.90;1.48;;;;;;;;;;10499374;28;20058;-86
2023/03/12 19:49:12;;;;;;;4.05;1.17;;;;;;;;;;10512330;28;20041;-86
2023/03/12 19:54:21;;;;;;;2.42;1.02;;;;;;;;;;10486688;28;20067;-85
2023/03/12 20:00:11;;;;;;;1.38;0.80;;;;;;;;;;10461584;28;20040;-84
2023/03/12 20:05:40;;;;;;;0.98;0.70;;;;;;;;;;10488527;28;20116;-85
2023/03/12 20:10:48;;;;;;;3.47;1.30;;;;;;;;;;10475767;28;20052;-77
2023/03/12 20:15:53;;;;;;;0.82;0.70;;;;;;;;;;10473125;28;20700;-74
2023/03/12 20:26:30;;;;;;;2.90;1.23;;;;;;;;;;10467711;28;20047;-77
2023/03/12 20:37:18;;;;;;;5.72;2.03;;;;;;;;;;10491271;28;20052;-80
2023/03/12 20:42:29;;;;;;;2.15;0.70;;;;;;;;;;10487328;28;20446;-80
2023/03/12 20:47:53;;;;;;;5.22;1.60;;;;;;;;;;10467841;28;20036;-80
2023/03/12 20:53:11;;;;;;;4.50;0.85;;;;;;;;;;10483952;28;20045;-78
2023/03/12 20:58:21;;;;;;;4.80;1.50;;;;;;;;;;10483037;28;20048;-78
2023/03/12 21:03:33;;;;;;;3.80;1.35;;;;;;;;;;10467075;28;20108;-79
2023/03/12 21:08:36;;;;;;;1.48;1.00;;;;;;;;;;10480594;28;20521;-80
2023/03/12 21:13:44;;;;;;;7.33;1.50;;;;;;;;;;10482410;28;20370;-81
2023/03/12 21:18:51;;;;;;;4.35;1.13;;;;;;;;;;10486812;28;20048;-81
2023/03/12 21:24:00;;;;;;;2.47;1.10;;;;;;;;;;10481540;28;20355;-80
2023/03/12 21:29:24;;;;;;;4.82;1.73;;;;;;;;;;10481621;28;20402;-81
2023/03/12 21:34:39;;;;;;;3.60;1.50;;;;;;;;;;10486267;28;20131;-82
2023/03/12 21:39:59;;;;;;;3.85;1.17;;;;;;;;;;10482519;28;20048;-82
2023/03/12 21:45:05;;;;;;;3.53;1.50;;;;;;;;;;10480509;28;20109;-83
2023/03/12 21:50:17;;;;;;;4.78;1.58;;;;;;;;;;10470888;28;20501;-79
2023/03/12 22:00:52;;;;;;;2.35;1.00;;;;;;;;;;10479508;28;20442;-80
2023/03/12 22:06:04;;;;;;;2.63;1.08;;;;;;;;;;10485388;28;20056;-80
2023/03/12 22:16:45;;;;;;;4.35;1.35;;;;;;;;;;10475155;28;20049;-81
2023/03/12 22:22:06;;;;;;;3.08;1.27;;;;;;;;;;10484302;28;20102;-78
2023/03/12 22:27:15;;;;;;;5.22;1.67;;;;;;;;;;10481324;28;20056;-79
2023/03/12 22:37:56;;;;;;;0.60;0.60;;;;;;;;;;10482563;28;20044;-79
2023/03/12 22:43:02;;;;;;;3.50;1.30;;;;;;;;;;10479803;28;20039;-79
2023/03/12 22:48:30;;;;;;;5.95;1.45;;;;;;;;;;10481692;28;20041;-79
2023/03/12 22:53:42;;;;;;;4.13;1.10;;;;;;;;;;10484687;28;20088;-79
2023/03/12 22:58:53;;;;;;;3.83;1.63;;;;;;;;;;10481447;28;20121;-79
2023/03/12 23:04:18;;;;;;;2.78;1.23;;;;;;;;;;10478990;28;20207;-80
2023/03/12 23:09:32;;;;;;;5.05;1.77;;;;;;;;;;10470934;28;20068;-81
2023/03/12 23:14:58;;;;;;;4.55;1.40;;;;;;;;;;10478088;28;20042;-79
2023/03/12 23:20:18;;;;;;;1.05;0.43;;;;;;;;;;10480286;28;20117;-80
2023/03/12 23:30:55;;;;;;;2.13;0.90;;;;;;;;;;10483787;28;20045;-84
2023/03/12 23:36:17;;;;;;;7.53;1.33;;;;;;;;;;10510330;28;20123;-84
2023/03/12 23:41:45;;;;;;;1.48;0.60;;;;;;;;;;10479341;28;20425;-82
2023/03/12 23:46:50;;;;;;;3.05;1.30;;;;;;;;;;10480132;28;20053;-81
2023/03/12 23:52:05;;;;;;;2.17;0.93;;;;;;;;;;10487365;28;20072;-81
2023/03/12 23:57:22;;;;;;;5.05;0.98;;;;;;;;;;10508407;28;20044;-81
